sensor_id;sensor_type;location;lat;lon;timestamp;P1;durP1;ratioP1;P2;durP2;ratioP2
60847;SDS011;46681;47.696;9.140;2022-11-15T00:00:30;4.33;;;3.93;;
60847;SDS011;46681;47.696;9.140;2022-11-15T00:02:57;3.90;;;3.50;;
60847;SDS011;46681;47.696;9.140;2022-11-15T00:05:24;4.00;;;3.70;;
60847;SDS011;46681;47.696;9.140;2022-11-15T00:07:50;3.70;;;3.40;;
60847;SDS011;46681;47.696;9.140;2022-11-15T00:10:16;3.47;;;3.27;;
60847;SDS011;46681;47.696;9.140;2022-11-15T00:12:43;3.30;;;3.10;;
60847;SDS011;46681;47.696;9.140;2022-11-15T00:15:08;3.47;;;3.27;;
60847;SDS011;46681;47.696;9.140;2022-11-15T00:17:34;3.50;;;3.30;;
60847;SDS011;46681;47.696;9.140;2022-11-15T00:19:59;3.70;;;3.50;;
60847;SDS011;46681;47.696;9.140;2022-11-15T00:22:31;3.00;;;2.80;;
60847;SDS011;46681;47.696;9.140;2022-11-15T00:24:57;3.50;;;3.30;;
60847;SDS011;46681;47.696;9.140;2022-11-15T00:27:24;3.40;;;3.20;;
60847;SDS011;46681;47.696;9.140;2022-11-15T00:29:50;3.37;;;3.17;;
60847;SDS011;46681;47.696;9.140;2022-11-15T00:32:16;3.57;;;3.30;;
60847;SDS011;46681;47.696;9.140;2022-11-15T00:34:44;3.30;;;3.10;;
60847;SDS011;46681;47.696;9.140;2022-11-15T00:37:10;3.67;;;3.37;;
60847;SDS011;46681;47.696;9.140;2022-11-15T00:39:36;3.10;;;2.90;;
60847;SDS011;46681;47.696;9.140;2022-11-15T00:42:03;3.50;;;3.20;;
60847;SDS011;46681;47.696;9.140;2022-11-15T00:44:30;3.83;;;3.57;;
60847;SDS011;46681;47.696;9.140;2022-11-15T00:46:55;3.40;;;3.13;;
60847;SDS011;46681;47.696;9.140;2022-11-15T00:49:22;3.20;;;3.00;;
60847;SDS011;46681;47.696;9.140;2022-11-15T00:51:49;3.00;;;2.80;;
60847;SDS011;46681;47.696;9.140;2022-11-15T00:54:14;3.57;;;3.37;;
60847;SDS011;46681;47.696;9.140;2022-11-15T00:56:40;3.67;;;3.40;;
60847;SDS011;46681;47.696;9.140;2022-11-15T00:59:05;2.83;;;2.73;;
60847;SDS011;46681;47.696;9.140;2022-11-15T01:01:31;3.93;;;3.30;;
60847;SDS011;46681;47.696;9.140;2022-11-15T01:03:58;3.60;;;3.30;;
60847;SDS011;46681;47.696;9.140;2022-11-15T01:06:26;3.20;;;3.00;;
60847;SDS011;46681;47.696;9.140;2022-11-15T01:08:51;3.30;;;3.10;;
60847;SDS011;46681;47.696;9.140;2022-11-15T01:11:17;3.47;;;3.27;;
60847;SDS011;46681;47.696;9.140;2022-11-15T01:13:44;3.20;;;3.00;;
60847;SDS011;46681;47.696;9.140;2022-11-15T01:16:10;3.93;;;3.63;;
60847;SDS011;46681;47.696;9.140;2022-11-15T01:18:39;3.53;;;3.33;;
60847;SDS011;46681;47.696;9.140;2022-11-15T01:21:10;3.23;;;3.03;;
60847;SDS011;46681;47.696;9.140;2022-11-15T01:23:41;3.60;;;3.30;;
60847;SDS011;46681;47.696;9.140;2022-11-15T01:26:07;3.57;;;3.37;;
60847;SDS011;46681;47.696;9.140;2022-11-15T01:28:37;3.37;;;3.17;;
60847;SDS011;46681;47.696;9.140;2022-11-15T01:31:06;3.00;;;2.80;;
60847;SDS011;46681;47.696;9.140;2022-11-15T01:33:37;3.03;;;2.83;;
60847;SDS011;46681;47.696;9.140;2022-11-15T01:36:03;3.23;;;3.03;;
60847;SDS011;46681;47.696;9.140;2022-11-15T01:38:29;3.53;;;3.30;;
60847;SDS011;46681;47.696;9.140;2022-11-15T01:40:56;3.27;;;3.07;;
60847;SDS011;46681;47.696;9.140;2022-11-15T01:43:32;3.57;;;3.37;;
60847;SDS011;46681;47.696;9.140;2022-11-15T01:48:49;3.50;;;3.30;;
60847;SDS011;46681;47.696;9.140;2022-11-15T01:51:17;3.10;;;2.90;;
60847;SDS011;46681;47.696;9.140;2022-11-15T01:53:47;3.53;;;3.33;;
60847;SDS011;46681;47.696;9.140;2022-11-15T01:56:17;3.00;;;2.80;;
60847;SDS011;46681;47.696;9.140;2022-11-15T01:58:48;2.90;;;2.70;;
60847;SDS011;46681;47.696;9.140;2022-11-15T02:01:15;3.53;;;3.33;;
60847;SDS011;46681;47.696;9.140;2022-11-15T02:06:43;2.83;;;2.63;;
60847;SDS011;46681;47.696;9.140;2022-11-15T02:09:11;3.40;;;3.20;;
60847;SDS011;46681;47.696;9.140;2022-11-15T02:11:39;3.03;;;2.83;;
60847;SDS011;46681;47.696;9.140;2022-11-15T02:14:07;3.63;;;3.43;;
60847;SDS011;46681;47.696;9.140;2022-11-15T02:20:30;2.70;;;2.60;;
60847;SDS011;46681;47.696;9.140;2022-11-15T02:43:11;2.90;;;2.70;;
60847;SDS011;46681;47.696;9.140;2022-11-15T02:45:44;3.27;;;3.07;;
60847;SDS011;46681;47.696;9.140;2022-11-15T02:48:16;2.90;;;2.70;;
60847;SDS011;46681;47.696;9.140;2022-11-15T02:50:42;2.87;;;2.73;;
60847;SDS011;46681;47.696;9.140;2022-11-15T02:53:09;3.40;;;3.13;;
60847;SDS011;46681;47.696;9.140;2022-11-15T02:55:36;3.07;;;2.87;;
60847;SDS011;46681;47.696;9.140;2022-11-15T03:11:45;2.70;;;2.60;;
60847;SDS011;46681;47.696;9.140;2022-11-15T03:19:51;3.50;;;3.30;;
60847;SDS011;46681;47.696;9.140;2022-11-15T03:22:20;3.27;;;3.07;;
60847;SDS011;46681;47.696;9.140;2022-11-15T03:24:53;3.10;;;2.90;;
60847;SDS011;46681;47.696;9.140;2022-11-15T03:27:22;2.80;;;2.60;;
60847;SDS011;46681;47.696;9.140;2022-11-15T03:29:57;2.83;;;2.63;;
60847;SDS011;46681;47.696;9.140;2022-11-15T03:32:30;3.20;;;3.00;;
60847;SDS011;46681;47.696;9.140;2022-11-15T03:37:56;3.10;;;2.90;;
60847;SDS011;46681;47.696;9.140;2022-11-15T03:40:36;3.47;;;3.20;;
60847;SDS011;46681;47.696;9.140;2022-11-15T03:43:09;3.00;;;2.80;;
60847;SDS011;46681;47.696;9.140;2022-11-15T03:45:56;3.13;;;2.93;;
60847;SDS011;46681;47.696;9.140;2022-11-15T03:48:33;2.40;;;2.27;;
60847;SDS011;46681;47.696;9.140;2022-11-15T03:51:02;3.00;;;2.80;;
60847;SDS011;46681;47.696;9.140;2022-11-15T03:53:29;3.43;;;3.17;;
60847;SDS011;46681;47.696;9.140;2022-11-15T03:55:55;3.30;;;3.10;;
60847;SDS011;46681;47.696;9.140;2022-11-15T03:58:20;2.97;;;2.77;;
60847;SDS011;46681;47.696;9.140;2022-11-15T04:00:46;3.07;;;2.80;;
60847;SDS011;46681;47.696;9.140;2022-11-15T04:03:11;3.27;;;3.07;;
60847;SDS011;46681;47.696;9.140;2022-11-15T04:05:37;3.10;;;2.90;;
60847;SDS011;46681;47.696;9.140;2022-11-15T04:08:02;3.10;;;2.90;;
60847;SDS011;46681;47.696;9.140;2022-11-15T04:10:28;3.07;;;2.87;;
60847;SDS011;46681;47.696;9.140;2022-11-15T04:12:53;3.03;;;2.83;;
60847;SDS011;46681;47.696;9.140;2022-11-15T04:15:21;3.17;;;2.97;;
60847;SDS011;46681;47.696;9.140;2022-11-15T04:17:49;3.43;;;3.20;;
60847;SDS011;46681;47.696;9.140;2022-11-15T04:20:22;3.20;;;2.90;;
60847;SDS011;46681;47.696;9.140;2022-11-15T04:22:53;3.43;;;3.13;;
60847;SDS011;46681;47.696;9.140;2022-11-15T04:25:19;3.33;;;3.13;;
60847;SDS011;46681;47.696;9.140;2022-11-15T04:27:45;3.00;;;2.80;;
60847;SDS011;46681;47.696;9.140;2022-11-15T04:30:11;3.53;;;3.27;;
60847;SDS011;46681;47.696;9.140;2022-11-15T04:32:38;3.50;;;3.23;;
60847;SDS011;46681;47.696;9.140;2022-11-15T04:35:05;3.10;;;2.90;;
60847;SDS011;46681;47.696;9.140;2022-11-15T04:37:30;3.47;;;3.17;;
60847;SDS011;46681;47.696;9.140;2022-11-15T04:39:56;3.53;;;3.27;;
60847;SDS011;46681;47.696;9.140;2022-11-15T04:42:21;3.50;;;3.30;;
60847;SDS011;46681;47.696;9.140;2022-11-15T04:44:47;3.67;;;3.40;;
60847;SDS011;46681;47.696;9.140;2022-11-15T04:47:12;3.63;;;3.23;;
60847;SDS011;46681;47.696;9.140;2022-11-15T04:49:38;3.37;;;3.17;;
60847;SDS011;46681;47.696;9.140;2022-11-15T04:52:03;3.80;;;3.50;;
60847;SDS011;46681;47.696;9.140;2022-11-15T04:54:29;3.10;;;2.90;;
60847;SDS011;46681;47.696;9.140;2022-11-15T04:56:54;4.10;;;3.50;;
60847;SDS011;46681;47.696;9.140;2022-11-15T04:59:20;3.37;;;3.17;;
60847;SDS011;46681;47.696;9.140;2022-11-15T05:01:45;3.27;;;3.07;;
60847;SDS011;46681;47.696;9.140;2022-11-15T05:04:11;3.63;;;3.33;;
60847;SDS011;46681;47.696;9.140;2022-11-15T05:06:36;3.50;;;3.30;;
60847;SDS011;46681;47.696;9.140;2022-11-15T05:09:02;3.20;;;3.00;;
60847;SDS011;46681;47.696;9.140;2022-11-15T05:11:30;3.20;;;2.90;;
60847;SDS011;46681;47.696;9.140;2022-11-15T05:13:56;3.30;;;3.00;;
60847;SDS011;46681;47.696;9.140;2022-11-15T05:16:21;4.00;;;3.70;;
60847;SDS011;46681;47.696;9.140;2022-11-15T05:18:50;4.00;;;3.40;;
60847;SDS011;46681;47.696;9.140;2022-11-15T05:21:16;3.03;;;2.83;;
60847;SDS011;46681;47.696;9.140;2022-11-15T05:23:42;2.93;;;2.73;;
60847;SDS011;46681;47.696;9.140;2022-11-15T05:26:08;3.43;;;3.13;;
60847;SDS011;46681;47.696;9.140;2022-11-15T05:28:35;3.13;;;2.93;;
60847;SDS011;46681;47.696;9.140;2022-11-15T05:31:01;3.33;;;2.90;;
60847;SDS011;46681;47.696;9.140;2022-11-15T05:33:34;2.50;;;2.40;;
60847;SDS011;46681;47.696;9.140;2022-11-15T05:36:09;3.23;;;3.03;;
60847;SDS011;46681;47.696;9.140;2022-11-15T05:38:43;3.40;;;3.17;;
60847;SDS011;46681;47.696;9.140;2022-11-15T05:41:13;3.60;;;3.40;;
60847;SDS011;46681;47.696;9.140;2022-11-15T05:43:42;3.07;;;2.87;;
60847;SDS011;46681;47.696;9.140;2022-11-15T05:46:09;3.87;;;3.43;;
60847;SDS011;46681;47.696;9.140;2022-11-15T05:48:35;3.30;;;3.00;;
60847;SDS011;46681;47.696;9.140;2022-11-15T05:51:02;3.30;;;3.00;;
60847;SDS011;46681;47.696;9.140;2022-11-15T05:53:31;3.13;;;2.93;;
60847;SDS011;46681;47.696;9.140;2022-11-15T05:56:01;9.00;;;3.13;;
60847;SDS011;46681;47.696;9.140;2022-11-15T05:58:32;2.80;;;2.60;;
60847;SDS011;46681;47.696;9.140;2022-11-15T06:01:00;3.63;;;3.33;;
60847;SDS011;46681;47.696;9.140;2022-11-15T06:03:25;3.27;;;3.03;;
60847;SDS011;46681;47.696;9.140;2022-11-15T06:05:53;3.27;;;2.70;;
60847;SDS011;46681;47.696;9.140;2022-11-15T06:08:18;4.13;;;3.03;;
60847;SDS011;46681;47.696;9.140;2022-11-15T06:10:45;3.07;;;2.87;;
60847;SDS011;46681;47.696;9.140;2022-11-15T06:13:12;3.57;;;3.37;;
60847;SDS011;46681;47.696;9.140;2022-11-15T06:15:39;3.57;;;3.00;;
60847;SDS011;46681;47.696;9.140;2022-11-15T06:18:06;3.30;;;2.90;;
60847;SDS011;46681;47.696;9.140;2022-11-15T06:20:36;3.60;;;3.40;;
60847;SDS011;46681;47.696;9.140;2022-11-15T06:23:02;3.20;;;3.00;;
60847;SDS011;46681;47.696;9.140;2022-11-15T06:25:31;3.43;;;3.13;;
60847;SDS011;46681;47.696;9.140;2022-11-15T06:27:59;3.10;;;2.90;;
60847;SDS011;46681;47.696;9.140;2022-11-15T06:30:25;3.00;;;2.80;;
60847;SDS011;46681;47.696;9.140;2022-11-15T06:33:03;3.10;;;2.83;;
60847;SDS011;46681;47.696;9.140;2022-11-15T06:35:33;5.87;;;3.33;;
60847;SDS011;46681;47.696;9.140;2022-11-15T06:38:03;3.60;;;3.20;;
60847;SDS011;46681;47.696;9.140;2022-11-15T06:40:36;3.70;;;3.50;;
60847;SDS011;46681;47.696;9.140;2022-11-15T06:43:05;4.07;;;3.00;;
60847;SDS011;46681;47.696;9.140;2022-11-15T06:45:32;3.67;;;3.47;;
60847;SDS011;46681;47.696;9.140;2022-11-15T06:47:59;4.27;;;3.13;;
60847;SDS011;46681;47.696;9.140;2022-11-15T06:50:31;4.13;;;3.20;;
60847;SDS011;46681;47.696;9.140;2022-11-15T06:53:02;3.37;;;3.17;;
60847;SDS011;46681;47.696;9.140;2022-11-15T06:55:31;3.33;;;3.13;;
60847;SDS011;46681;47.696;9.140;2022-11-15T06:58:00;3.23;;;3.03;;
60847;SDS011;46681;47.696;9.140;2022-11-15T07:00:28;3.60;;;3.03;;
60847;SDS011;46681;47.696;9.140;2022-11-15T07:03:00;3.10;;;2.90;;
60847;SDS011;46681;47.696;9.140;2022-11-15T07:05:28;3.33;;;3.13;;
60847;SDS011;46681;47.696;9.140;2022-11-15T07:07:56;3.73;;;3.53;;
60847;SDS011;46681;47.696;9.140;2022-11-15T07:10:24;3.87;;;3.57;;
60847;SDS011;46681;47.696;9.140;2022-11-15T07:12:51;4.73;;;3.03;;
60847;SDS011;46681;47.696;9.140;2022-11-15T07:15:19;3.70;;;3.40;;
60847;SDS011;46681;47.696;9.140;2022-11-15T07:17:51;3.60;;;2.87;;
60847;SDS011;46681;47.696;9.140;2022-11-15T07:20:18;3.60;;;3.30;;
60847;SDS011;46681;47.696;9.140;2022-11-15T07:22:44;3.90;;;3.43;;
60847;SDS011;46681;47.696;9.140;2022-11-15T07:25:10;3.30;;;3.00;;
60847;SDS011;46681;47.696;9.140;2022-11-15T07:27:38;3.20;;;3.00;;
60847;SDS011;46681;47.696;9.140;2022-11-15T07:30:04;3.40;;;3.20;;
60847;SDS011;46681;47.696;9.140;2022-11-15T07:32:30;3.60;;;3.40;;
60847;SDS011;46681;47.696;9.140;2022-11-15T07:34:56;3.73;;;3.47;;
60847;SDS011;46681;47.696;9.140;2022-11-15T07:37:22;3.47;;;3.27;;
60847;SDS011;46681;47.696;9.140;2022-11-15T07:39:50;3.40;;;3.20;;
60847;SDS011;46681;47.696;9.140;2022-11-15T07:42:15;4.37;;;4.07;;
60847;SDS011;46681;47.696;9.140;2022-11-15T07:44:42;3.70;;;3.40;;
60847;SDS011;46681;47.696;9.140;2022-11-15T07:47:08;4.00;;;3.70;;
60847;SDS011;46681;47.696;9.140;2022-11-15T07:49:35;4.10;;;3.70;;
60847;SDS011;46681;47.696;9.140;2022-11-15T07:52:00;4.47;;;4.17;;
60847;SDS011;46681;47.696;9.140;2022-11-15T07:54:27;3.87;;;3.57;;
60847;SDS011;46681;47.696;9.140;2022-11-15T07:56:53;3.63;;;3.37;;
60847;SDS011;46681;47.696;9.140;2022-11-15T07:59:19;3.83;;;3.53;;
60847;SDS011;46681;47.696;9.140;2022-11-15T08:01:46;4.40;;;4.10;;
60847;SDS011;46681;47.696;9.140;2022-11-15T08:04:12;4.07;;;3.70;;
60847;SDS011;46681;47.696;9.140;2022-11-15T08:06:37;4.30;;;4.00;;
60847;SDS011;46681;47.696;9.140;2022-11-15T08:09:03;4.27;;;3.97;;
60847;SDS011;46681;47.696;9.140;2022-11-15T08:11:33;4.27;;;3.87;;
60847;SDS011;46681;47.696;9.140;2022-11-15T08:14:00;6.30;;;3.97;;
60847;SDS011;46681;47.696;9.140;2022-11-15T08:16:30;4.20;;;3.90;;
60847;SDS011;46681;47.696;9.140;2022-11-15T08:18:57;4.13;;;3.77;;
60847;SDS011;46681;47.696;9.140;2022-11-15T08:21:25;5.53;;;5.07;;
60847;SDS011;46681;47.696;9.140;2022-11-15T08:23:52;4.47;;;4.07;;
60847;SDS011;46681;47.696;9.140;2022-11-15T08:26:18;3.90;;;3.60;;
60847;SDS011;46681;47.696;9.140;2022-11-15T08:28:44;4.03;;;3.73;;
60847;SDS011;46681;47.696;9.140;2022-11-15T08:31:14;4.43;;;4.03;;
60847;SDS011;46681;47.696;9.140;2022-11-15T08:33:44;4.87;;;4.50;;
60847;SDS011;46681;47.696;9.140;2022-11-15T08:36:15;4.90;;;4.50;;
60847;SDS011;46681;47.696;9.140;2022-11-15T08:38:46;3.80;;;3.50;;
60847;SDS011;46681;47.696;9.140;2022-11-15T08:41:23;4.70;;;4.20;;
60847;SDS011;46681;47.696;9.140;2022-11-15T08:44:00;4.73;;;4.33;;
60847;SDS011;46681;47.696;9.140;2022-11-15T08:46:30;3.97;;;3.67;;
60847;SDS011;46681;47.696;9.140;2022-11-15T08:48:55;4.77;;;3.97;;
60847;SDS011;46681;47.696;9.140;2022-11-15T08:51:23;4.27;;;3.97;;
60847;SDS011;46681;47.696;9.140;2022-11-15T08:53:52;4.60;;;4.23;;
60847;SDS011;46681;47.696;9.140;2022-11-15T08:56:31;4.73;;;4.07;;
60847;SDS011;46681;47.696;9.140;2022-11-15T08:58:57;4.60;;;4.20;;
60847;SDS011;46681;47.696;9.140;2022-11-15T09:01:22;4.47;;;4.17;;
60847;SDS011;46681;47.696;9.140;2022-11-15T09:03:50;4.50;;;4.10;;
60847;SDS011;46681;47.696;9.140;2022-11-15T09:06:16;4.47;;;4.17;;
60847;SDS011;46681;47.696;9.140;2022-11-15T09:08:42;4.77;;;4.37;;
60847;SDS011;46681;47.696;9.140;2022-11-15T09:11:09;4.57;;;4.17;;
60847;SDS011;46681;47.696;9.140;2022-11-15T09:13:38;4.83;;;4.43;;
60847;SDS011;46681;47.696;9.140;2022-11-15T09:16:07;4.67;;;4.27;;
60847;SDS011;46681;47.696;9.140;2022-11-15T09:18:34;5.10;;;4.70;;
60847;SDS011;46681;47.696;9.140;2022-11-15T09:21:00;4.57;;;4.17;;
60847;SDS011;46681;47.696;9.140;2022-11-15T09:23:26;5.00;;;4.60;;
60847;SDS011;46681;47.696;9.140;2022-11-15T09:25:57;4.40;;;4.10;;
60847;SDS011;46681;47.696;9.140;2022-11-15T09:28:25;5.10;;;4.60;;
60847;SDS011;46681;47.696;9.140;2022-11-15T09:30:50;4.73;;;4.37;;
60847;SDS011;46681;47.696;9.140;2022-11-15T09:33:17;4.73;;;4.33;;
60847;SDS011;46681;47.696;9.140;2022-11-15T09:35:43;4.93;;;4.50;;
60847;SDS011;46681;47.696;9.140;2022-11-15T09:38:09;4.97;;;4.50;;
60847;SDS011;46681;47.696;9.140;2022-11-15T09:40:36;5.00;;;4.50;;
60847;SDS011;46681;47.696;9.140;2022-11-15T09:46:04;4.83;;;4.43;;
60847;SDS011;46681;47.696;9.140;2022-11-15T09:51:47;5.10;;;4.70;;
60847;SDS011;46681;47.696;9.140;2022-11-15T09:56:43;5.13;;;4.63;;
60847;SDS011;46681;47.696;9.140;2022-11-15T10:04:58;4.83;;;4.43;;
60847;SDS011;46681;47.696;9.140;2022-11-15T10:07:34;4.77;;;4.37;;
60847;SDS011;46681;47.696;9.140;2022-11-15T10:13:02;4.57;;;4.17;;
60847;SDS011;46681;47.696;9.140;2022-11-15T10:15:28;5.13;;;4.73;;
60847;SDS011;46681;47.696;9.140;2022-11-15T10:20:26;5.40;;;4.73;;
60847;SDS011;46681;47.696;9.140;2022-11-15T10:23:00;4.93;;;4.53;;
60847;SDS011;46681;47.696;9.140;2022-11-15T10:25:36;4.50;;;4.10;;
60847;SDS011;46681;47.696;9.140;2022-11-15T10:30:36;4.27;;;3.97;;
60847;SDS011;46681;47.696;9.140;2022-11-15T10:33:53;4.87;;;4.47;;
60847;SDS011;46681;47.696;9.140;2022-11-15T10:41:20;4.90;;;4.37;;
60847;SDS011;46681;47.696;9.140;2022-11-15T10:44:00;4.87;;;4.47;;
60847;SDS011;46681;47.696;9.140;2022-11-15T10:46:27;4.90;;;4.50;;
60847;SDS011;46681;47.696;9.140;2022-11-15T10:49:10;4.50;;;4.10;;
60847;SDS011;46681;47.696;9.140;2022-11-15T10:51:42;4.73;;;4.33;;
60847;SDS011;46681;47.696;9.140;2022-11-15T10:54:17;4.90;;;4.50;;
60847;SDS011;46681;47.696;9.140;2022-11-15T10:56:52;4.70;;;4.30;;
60847;SDS011;46681;47.696;9.140;2022-11-15T10:59:28;6.43;;;4.57;;
60847;SDS011;46681;47.696;9.140;2022-11-15T11:02:00;4.73;;;4.33;;
60847;SDS011;46681;47.696;9.140;2022-11-15T11:04:26;4.47;;;4.07;;
60847;SDS011;46681;47.696;9.140;2022-11-15T11:06:57;4.33;;;4.03;;
60847;SDS011;46681;47.696;9.140;2022-11-15T11:09:37;4.20;;;3.90;;
60847;SDS011;46681;47.696;9.140;2022-11-15T11:12:09;4.93;;;4.20;;
60847;SDS011;46681;47.696;9.140;2022-11-15T11:14:51;4.37;;;4.07;;
60847;SDS011;46681;47.696;9.140;2022-11-15T11:17:29;4.83;;;4.27;;
60847;SDS011;46681;47.696;9.140;2022-11-15T11:20:10;4.50;;;4.20;;
60847;SDS011;46681;47.696;9.140;2022-11-15T11:22:50;4.77;;;4.27;;
60847;SDS011;46681;47.696;9.140;2022-11-15T11:38:19;4.70;;;4.30;;
60847;SDS011;46681;47.696;9.140;2022-11-15T11:40:30;4.63;;;4.23;;
60847;SDS011;46681;47.696;9.140;2022-11-15T11:43:26;4.63;;;4.23;;
60847;SDS011;46681;47.696;9.140;2022-11-15T11:54:41;4.93;;;4.53;;
60847;SDS011;46681;47.696;9.140;2022-11-15T11:57:16;4.53;;;4.13;;
60847;SDS011;46681;47.696;9.140;2022-11-15T12:02:46;5.10;;;4.70;;
60847;SDS011;46681;47.696;9.140;2022-11-15T12:08:02;4.50;;;4.10;;
60847;SDS011;46681;47.696;9.140;2022-11-15T12:10:47;5.17;;;4.77;;
60847;SDS011;46681;47.696;9.140;2022-11-15T12:13:19;4.37;;;4.07;;
60847;SDS011;46681;47.696;9.140;2022-11-15T12:18:43;4.83;;;4.43;;
60847;SDS011;46681;47.696;9.140;2022-11-15T12:24:01;4.90;;;4.50;;
60847;SDS011;46681;47.696;9.140;2022-11-15T12:27:00;4.93;;;4.53;;
60847;SDS011;46681;47.696;9.140;2022-11-15T12:29:42;4.57;;;4.20;;
60847;SDS011;46681;47.696;9.140;2022-11-15T12:32:23;5.20;;;4.73;;
60847;SDS011;46681;47.696;9.140;2022-11-15T12:34:56;5.90;;;4.40;;
60847;SDS011;46681;47.696;9.140;2022-11-15T12:43:01;5.70;;;4.80;;
60847;SDS011;46681;47.696;9.140;2022-11-15T12:45:40;5.27;;;4.87;;
60847;SDS011;46681;47.696;9.140;2022-11-15T12:58:56;5.53;;;5.07;;
60847;SDS011;46681;47.696;9.140;2022-11-15T13:10:28;4.70;;;4.30;;
60847;SDS011;46681;47.696;9.140;2022-11-15T13:17:49;4.60;;;4.20;;
60847;SDS011;46681;47.696;9.140;2022-11-15T13:20:18;4.50;;;4.10;;
60847;SDS011;46681;47.696;9.140;2022-11-15T13:22:59;4.77;;;4.37;;
60847;SDS011;46681;47.696;9.140;2022-11-15T13:25:45;4.27;;;3.87;;
60847;SDS011;46681;47.696;9.140;2022-11-15T13:34:03;4.93;;;4.47;;
60847;SDS011;46681;47.696;9.140;2022-11-15T13:36:54;4.53;;;4.10;;
60847;SDS011;46681;47.696;9.140;2022-11-15T13:39:30;4.63;;;4.10;;
60847;SDS011;46681;47.696;9.140;2022-11-15T13:41:58;4.43;;;4.00;;
60847;SDS011;46681;47.696;9.140;2022-11-15T13:44:30;3.87;;;3.57;;
60847;SDS011;46681;47.696;9.140;2022-11-15T13:49:39;4.40;;;4.00;;
60847;SDS011;46681;47.696;9.140;2022-11-15T13:52:07;4.83;;;4.30;;
60847;SDS011;46681;47.696;9.140;2022-11-15T13:57:14;4.80;;;4.30;;
60847;SDS011;46681;47.696;9.140;2022-11-15T13:59:49;5.73;;;4.07;;
60847;SDS011;46681;47.696;9.140;2022-11-15T14:02:16;5.07;;;4.33;;
60847;SDS011;46681;47.696;9.140;2022-11-15T14:04:51;4.67;;;4.03;;
60847;SDS011;46681;47.696;9.140;2022-11-15T14:07:25;4.73;;;4.23;;
60847;SDS011;46681;47.696;9.140;2022-11-15T14:09:55;4.43;;;4.03;;
60847;SDS011;46681;47.696;9.140;2022-11-15T14:15:23;4.43;;;4.03;;
60847;SDS011;46681;47.696;9.140;2022-11-15T14:17:58;4.47;;;4.07;;
60847;SDS011;46681;47.696;9.140;2022-11-15T14:23:01;5.03;;;4.50;;
60847;SDS011;46681;47.696;9.140;2022-11-15T14:25:55;4.60;;;4.20;;
60847;SDS011;46681;47.696;9.140;2022-11-15T14:30:58;4.20;;;3.90;;
60847;SDS011;46681;47.696;9.140;2022-11-15T14:33:31;4.97;;;4.57;;
60847;SDS011;46681;47.696;9.140;2022-11-15T14:36:05;5.10;;;4.60;;
60847;SDS011;46681;47.696;9.140;2022-11-15T14:38:45;4.50;;;4.10;;
60847;SDS011;46681;47.696;9.140;2022-11-15T14:41:20;4.57;;;4.27;;
60847;SDS011;46681;47.696;9.140;2022-11-15T14:43:51;5.70;;;4.47;;
60847;SDS011;46681;47.696;9.140;2022-11-15T14:46:19;5.47;;;4.93;;
60847;SDS011;46681;47.696;9.140;2022-11-15T14:48:47;5.33;;;4.43;;
60847;SDS011;46681;47.696;9.140;2022-11-15T14:51:18;5.10;;;4.70;;
60847;SDS011;46681;47.696;9.140;2022-11-15T14:53:49;5.20;;;4.70;;
60847;SDS011;46681;47.696;9.140;2022-11-15T14:56:18;5.40;;;5.00;;
60847;SDS011;46681;47.696;9.140;2022-11-15T14:58:48;4.93;;;4.53;;
60847;SDS011;46681;47.696;9.140;2022-11-15T15:01:24;5.50;;;4.97;;
60847;SDS011;46681;47.696;9.140;2022-11-15T15:03:57;5.13;;;4.73;;
60847;SDS011;46681;47.696;9.140;2022-11-15T15:06:33;5.53;;;5.03;;
60847;SDS011;46681;47.696;9.140;2022-11-15T15:08:59;6.07;;;5.33;;
60847;SDS011;46681;47.696;9.140;2022-11-15T15:11:26;5.37;;;4.87;;
60847;SDS011;46681;47.696;9.140;2022-11-15T15:13:58;5.30;;;4.90;;
60847;SDS011;46681;47.696;9.140;2022-11-15T15:16:24;5.83;;;5.13;;
60847;SDS011;46681;47.696;9.140;2022-11-15T15:18:55;5.33;;;4.83;;
60847;SDS011;46681;47.696;9.140;2022-11-15T15:21:27;5.50;;;5.00;;
60847;SDS011;46681;47.696;9.140;2022-11-15T15:23:53;5.50;;;5.00;;
60847;SDS011;46681;47.696;9.140;2022-11-15T15:26:20;5.73;;;5.23;;
60847;SDS011;46681;47.696;9.140;2022-11-15T15:28:48;5.87;;;4.90;;
60847;SDS011;46681;47.696;9.140;2022-11-15T15:31:14;6.43;;;4.77;;
60847;SDS011;46681;47.696;9.140;2022-11-15T15:33:49;5.53;;;5.03;;
60847;SDS011;46681;47.696;9.140;2022-11-15T15:36:18;5.27;;;4.80;;
60847;SDS011;46681;47.696;9.140;2022-11-15T15:38:50;5.60;;;5.10;;
60847;SDS011;46681;47.696;9.140;2022-11-15T15:41:17;5.23;;;4.83;;
60847;SDS011;46681;47.696;9.140;2022-11-15T15:43:42;4.93;;;4.53;;
60847;SDS011;46681;47.696;9.140;2022-11-15T15:46:11;5.20;;;4.80;;
60847;SDS011;46681;47.696;9.140;2022-11-15T15:48:41;5.87;;;5.07;;
60847;SDS011;46681;47.696;9.140;2022-11-15T15:51:08;5.00;;;4.60;;
60847;SDS011;46681;47.696;9.140;2022-11-15T15:53:34;6.47;;;5.97;;
60847;SDS011;46681;47.696;9.140;2022-11-15T15:55:59;5.60;;;5.10;;
60847;SDS011;46681;47.696;9.140;2022-11-15T15:58:25;4.47;;;4.07;;
60847;SDS011;46681;47.696;9.140;2022-11-15T16:00:51;6.43;;;4.90;;
60847;SDS011;46681;47.696;9.140;2022-11-15T16:03:16;5.37;;;4.87;;
60847;SDS011;46681;47.696;9.140;2022-11-15T16:05:42;4.87;;;4.47;;
60847;SDS011;46681;47.696;9.140;2022-11-15T16:08:26;5.37;;;4.90;;
60847;SDS011;46681;47.696;9.140;2022-11-15T16:10:55;5.37;;;4.87;;
60847;SDS011;46681;47.696;9.140;2022-11-15T16:13:21;5.57;;;5.07;;
60847;SDS011;46681;47.696;9.140;2022-11-15T16:15:47;5.10;;;4.70;;
60847;SDS011;46681;47.696;9.140;2022-11-15T16:18:17;5.70;;;5.03;;
60847;SDS011;46681;47.696;9.140;2022-11-15T16:20:51;5.80;;;5.20;;
60847;SDS011;46681;47.696;9.140;2022-11-15T16:23:17;5.97;;;5.47;;
60847;SDS011;46681;47.696;9.140;2022-11-15T16:25:48;4.97;;;4.57;;
60847;SDS011;46681;47.696;9.140;2022-11-15T16:28:19;6.60;;;5.20;;
60847;SDS011;46681;47.696;9.140;2022-11-15T16:30:48;6.67;;;5.10;;
60847;SDS011;46681;47.696;9.140;2022-11-15T16:33:24;6.07;;;5.03;;
60847;SDS011;46681;47.696;9.140;2022-11-15T16:35:51;5.33;;;4.93;;
60847;SDS011;46681;47.696;9.140;2022-11-15T16:38:20;5.73;;;5.13;;
60847;SDS011;46681;47.696;9.140;2022-11-15T16:40:47;6.40;;;5.43;;
60847;SDS011;46681;47.696;9.140;2022-11-15T16:43:13;5.97;;;5.47;;
60847;SDS011;46681;47.696;9.140;2022-11-15T16:45:38;5.60;;;5.10;;
60847;SDS011;46681;47.696;9.140;2022-11-15T16:48:04;5.17;;;4.73;;
60847;SDS011;46681;47.696;9.140;2022-11-15T16:50:57;7.17;;;4.70;;
60847;SDS011;46681;47.696;9.140;2022-11-15T16:53:26;5.80;;;5.30;;
60847;SDS011;46681;47.696;9.140;2022-11-15T16:55:53;4.80;;;4.40;;
60847;SDS011;46681;47.696;9.140;2022-11-15T16:58:22;6.50;;;5.33;;
60847;SDS011;46681;47.696;9.140;2022-11-15T17:00:50;6.07;;;5.47;;
60847;SDS011;46681;47.696;9.140;2022-11-15T17:03:19;5.77;;;4.63;;
60847;SDS011;46681;47.696;9.140;2022-11-15T17:05:49;5.23;;;4.83;;
60847;SDS011;46681;47.696;9.140;2022-11-15T17:08:16;6.60;;;5.50;;
60847;SDS011;46681;47.696;9.140;2022-11-15T17:10:42;5.30;;;4.90;;
60847;SDS011;46681;47.696;9.140;2022-11-15T17:13:11;5.83;;;5.20;;
60847;SDS011;46681;47.696;9.140;2022-11-15T17:15:40;5.60;;;5.10;;
60847;SDS011;46681;47.696;9.140;2022-11-15T17:18:09;6.20;;;4.93;;
60847;SDS011;46681;47.696;9.140;2022-11-15T17:20:36;8.10;;;5.27;;
60847;SDS011;46681;47.696;9.140;2022-11-15T17:23:02;5.73;;;5.27;;
60847;SDS011;46681;47.696;9.140;2022-11-15T17:25:29;7.07;;;6.37;;
60847;SDS011;46681;47.696;9.140;2022-11-15T17:27:55;11.43;;;7.23;;
60847;SDS011;46681;47.696;9.140;2022-11-15T17:30:21;8.70;;;7.80;;
60847;SDS011;46681;47.696;9.140;2022-11-15T17:32:47;10.73;;;7.43;;
60847;SDS011;46681;47.696;9.140;2022-11-15T17:35:15;7.73;;;6.93;;
60847;SDS011;46681;47.696;9.140;2022-11-15T17:37:42;7.40;;;6.70;;
60847;SDS011;46681;47.696;9.140;2022-11-15T17:40:09;7.77;;;7.03;;
60847;SDS011;46681;47.696;9.140;2022-11-15T17:42:45;7.83;;;6.70;;